Stations météo

réclame
Mon MeteoGroup
Faaroesund-ar, Suède (2587): Température de l'air & dewpoint: 17.05.2018 22:00:00 - 23.05.2018 22:00:00 (CEST)Faaroesund-ar, Suède (2587): Vitesse du vent & gusts: 17.05.2018 22:00:00 - 23.05.2018 22:00:00 (CEST)Faaroesund-ar, Suède (2587): Direction du vent: 17.05.2018 22:00:00 - 23.05.2018 22:00:00 (CEST)Faaroesund-ar, Suède (2587): visibility: 17.05.2018 22:00:00 - 23.05.2018 22:00:00 (CEST)Faaroesund-ar, Suède (2587): Quantités de précipitations: 17.05.2018 22:00:00 - 23.05.2018 22:00:00 (CEST)
Date & Time tt [°C] td [°C] ff [km/h] ff [knt] fx [km/h] fx [knt] dd vv [km] rr [mm]
23.05.2018 22:00:00 11,6 9,2 12 7 23 12 N 50 0,0
23.05.2018 21:00:00 12,1 8,9 16 9 23 12 N 50 0,0
23.05.2018 20:00:00 13,3 9,9 13 7 20 11 N 45 0,0
23.05.2018 19:00:00 13,4 10,8 10 5 20 11 NE 35 0,0
23.05.2018 18:00:00 13,9 11,8 6 4 14 8 N 36 0,0
23.05.2018 17:00:00 15,5 10,1 10 6 26 14 N 40 0,0
23.05.2018 16:00:00 16,0 8,7 5 3 41 22 ENE 50 0,0
23.05.2018 15:00:00 14,5 11,1 22 12 41 22 NNW 42 0,0
23.05.2018 14:00:00 17,5 9,4 25 14 30 16 WNW 30 0,0
23.05.2018 13:00:00 17,1 8,8 26 14 29 15 WNW 49 0,0
23.05.2018 12:00:00 17,4 9,1 19 11 25 14 WNW 34 0,0
23.05.2018 11:00:00 18,6 8,6 9 5 22 12 NW 41 0,0
23.05.2018 10:00:00 15,3 10,3 12 7 17 9 WNW 39 0,0
23.05.2018 09:00:00 14,7 9,1 7 4 14 8 WNW 41 0,0
23.05.2018 08:00:00 15,6 10,6 3 2 14 8 NW 50 0,0
23.05.2018 07:00:00 16,1 10,2 3 2 9 5 SSW 44 0,0
23.05.2018 06:00:00 13,0 10,9 6 3 16 8 SW 37 0,0
23.05.2018 05:00:00 11,2 10,3 5 3 16 8 W 17 0,0
23.05.2018 04:00:00 11,3 9,9 5 3 16 9 S 36 0,0
23.05.2018 03:00:00 12,0 6,3 13 7 16 9 S 50 0,0
23.05.2018 02:00:00 12,9 7,6 11 6 16 8 S 50 0,0
23.05.2018 01:00:00 13,0 9,6 10 5 12 6 SSE 50 0,0
23.05.2018 00:00:00 13,2 8,1 7 4 9 5 ESE 50 0,0
22.05.2018 23:00:00 13,4 9,1 2 1 10 5 N 50 0,0
22.05.2018 22:00:00 14,3 9,7 5 3 10 5 WNW 49 0,0
22.05.2018 21:00:00 15,2 7,7 3 2 23 12 S 50 0,0
22.05.2018 20:00:00 15,8 8,0 4 2 23 12 S 50 0,0
22.05.2018 19:00:00 17,0 7,1 11 6 22 12 ESE 48 0,0
22.05.2018 18:00:00 17,5 5,7 9 5 35 19 ESE 49 0,0
22.05.2018 17:00:00 17,1 7,2 17 9 35 19 SE 49 0,0
22.05.2018 16:00:00 15,5 9,4 20 11 24 13 NNE 43 0,0
22.05.2018 15:00:00 16,3 9,2 17 9 26 14 NNE 50 0,0
22.05.2018 14:00:00 22,1 3,7 16 9 26 14 E 47 0,0
22.05.2018 13:00:00 21,9 3,1 14 8 24 13 ESE 40 0,0
22.05.2018 12:00:00 21,9 3,5 13 7 24 13 E 40 0,0
22.05.2018 11:00:00 20,9 4,0 11 6 21 11 ESE 34 0,0
22.05.2018 10:00:00 20,8 5,2 11 6 18 10 E 35 0,0
22.05.2018 09:00:00 20,2 5,0 9 5 15 8 SE 35 0,0
22.05.2018 08:00:00 17,7 8,0 4 2 20 11 ENE 36 0,0
22.05.2018 07:00:00 16,0 8,0 7 4 20 11 SSE 39 0,0
22.05.2018 06:00:00 13,7 9,3 2 1 23 13 E 50 0,0
22.05.2018 05:00:00 11,9 8,7 4 2 23 13 NE 50 0,0
22.05.2018 04:00:00 12,3 7,8 16 9 22 12 SE 50 0,0
22.05.2018 03:00:00 12,0 6,9 11 6 18 10 ESE 50 0,0
22.05.2018 02:00:00 11,2 6,7 8 4 11 6 E 50 0,0
22.05.2018 01:00:00 11,5 7,6 6 3 12 7 E 50 0,0
22.05.2018 00:00:00 11,8 7,3 7 4 12 7 E 50 0,0
21.05.2018 23:00:00 12,4 6,5 8 4 10 6 ESE 50 0,0
21.05.2018 22:00:00 12,7 7,4 3 2 12 7 NE 50 0,0
21.05.2018 21:00:00 14,6 7,9 3 2 12 7 ESE 50 0,0
21.05.2018 20:00:00 17,8 4,7 5 3 10 6 SE 43 0,0
21.05.2018 19:00:00 14,5 8,4 6 3 9 5 ENE 45 0,0
21.05.2018 18:00:00 14,3 9,3 5 3 8 5 ENE 44 0,0
21.05.2018 17:00:00 13,9 9,1 6 3 9 5 ENE 50 0,0
21.05.2018 16:00:00 13,5 9,2 5 3 19 10 N 47 0,0
21.05.2018 15:00:00 14,9 8,4 7 4 19 10 NW 44 0,0
21.05.2018 14:00:00 15,1 8,8 14 8 19 10 NW 39 0,0
21.05.2018 13:00:00 14,2 8,8 13 7 17 9 NW 34 0,0
21.05.2018 12:00:00 14,1 8,3 10 5 13 7 NW 38 0,0
21.05.2018 11:00:00 15,3 6,6 9 5 16 8 NW 47 0,0
21.05.2018 10:00:00 16,7 5,9 10 5 17 9 NW 44 0,0
21.05.2018 09:00:00 16,0 4,7 12 6 25 13 NW 42 0,0
21.05.2018 08:00:00 17,6 4,5 9 5 26 14 W 40 0,0
21.05.2018 07:00:00 16,7 4,1 15 8 27 14 W 50 0,0
21.05.2018 06:00:00 15,9 4,0 16 9 27 14 W 50 0,0
21.05.2018 05:00:00 15,5 3,6 16 9 25 13 W 50 0,0
21.05.2018 04:00:00 15,2 3,3 16 8 26 14 WSW 50 0,0
21.05.2018 03:00:00 14,2 3,9 16 9 26 14 WSW 50 0,0
21.05.2018 02:00:00 14,0 3,5 18 10 23 12 SW 31 0,0
21.05.2018 01:00:00 13,6 3,9 14 8 19 10 SW 50 0,0
21.05.2018 00:00:00 13,7 4,3 12 6 19 10 SW 50 0,0
20.05.2018 23:00:00 14,6 4,0 12 6 19 10 SW 50 0,0
20.05.2018 22:00:00 15,9 4,6 8 5 14 7 SW 50 0,0
20.05.2018 21:00:00 17,7 5,3 7 4 19 10 SW 47 0,0
20.05.2018 20:00:00 19,2 3,8 10 6 22 12 SW 50 0,0
20.05.2018 19:00:00 20,7 3,4 12 6 25 14 WSW 42 0,0
20.05.2018 18:00:00 21,7 2,4 14 8 27 14 SW 49 0,0
20.05.2018 17:00:00 21,8 0,9 18 10 31 17 WSW 47 0,0
20.05.2018 16:00:00 20,5 0,3 18 10 31 17 W 50 0,0
20.05.2018 15:00:00 18,6 2,8 21 11 29 15 WNW 49 0,0
20.05.2018 14:00:00 18,1 3,9 21 12 30 16 WNW 39 0,0
20.05.2018 13:00:00 17,9 3,4 22 12 30 16 WNW 49 0,0
20.05.2018 12:00:00 17,4 1,4 23 12 27 14 WNW 39 0,0
20.05.2018 11:00:00 15,4 5,0 18 10 21 11 WNW 46 0,0
20.05.2018 10:00:00 15,4 4,7 16 9 24 13 WNW 50 0,0
20.05.2018 09:00:00 14,7 4,1 16 9 26 14 WNW 46 0,0
20.05.2018 08:00:00 15,0 3,8 16 8 26 14 W 47 0,0
20.05.2018 07:00:00 14,2 4,5 10 5 21 11 WSW 50 0,0
20.05.2018 06:00:00 11,1 4,5 14 7 21 11 SW 50 0,0
20.05.2018 05:00:00 9,8 4,4 14 7 21 11 SW 50 0,0
20.05.2018 04:00:00 9,5 3,5 13 7 21 11 SW 50 0,0
20.05.2018 03:00:00 9,8 1,4 14 8 19 10 SW 50 0,0
20.05.2018 02:00:00 9,4 1,3 14 8 18 10 SW 50 0,0
20.05.2018 01:00:00 9,8 0,9 14 7 18 10 SW 50 0,0
20.05.2018 00:00:00 10,1 3,4 10 5 14 8 SW 50 0,0
19.05.2018 23:00:00 9,6 3,6 11 6 12 7 SSW 50 0,0
19.05.2018 22:00:00 10,7 2,5 9 5 11 6 WSW 49 0,0
19.05.2018 21:00:00 11,7 0,8 5 3 12 6 W 19 0,0
19.05.2018 20:00:00 12,4 5,6 8 4 16 8 WNW 50 0,0
19.05.2018 19:00:00 12,4 4,9 12 7 16 8 WNW 50 0,0
19.05.2018 18:00:00 13,3 3,1 10 5 14 7 NW 47 0,0
19.05.2018 17:00:00 12,1 3,8 5 3 11 6 NNW 50 0,0
19.05.2018 16:00:00 12,0 5,6 6 3 13 7 NNW 47 0,0
19.05.2018 15:00:00 11,0 6,1 9 5 14 7 NNW 44 0,0
19.05.2018 14:00:00 11,2 6,3 8 5 14 8 NNW 41 0,0
19.05.2018 13:00:00 9,7 6,2 8 4 16 9 N 39 0,0
19.05.2018 12:00:00 9,8 6,3 10 5 21 11 N 46 0,0
19.05.2018 11:00:00 9,8 6,1 12 7 21 11 N 43 0,0
19.05.2018 10:00:00 8,9 5,6 16 8 25 14 N 40 0,0
19.05.2018 09:00:00 9,1 5,7 17 9 25 14 N 46 0,0
19.05.2018 08:00:00 8,8 5,5 17 9 23 12 N 45 0,0
19.05.2018 07:00:00 8,2 5,5 14 8 26 14 N 50 0,0
19.05.2018 06:00:00 8,4 5,3 17 9 36 20 N 48 0,0
19.05.2018 05:00:00 8,4 5,0 22 12 36 20 N 50 0,0
19.05.2018 04:00:00 9,0 4,2 31 17 36 19 NNW 50 0,0
19.05.2018 03:00:00 8,7 4,9 29 15 34 19 NW 50 0,0
19.05.2018 02:00:00 8,2 5,1 22 12 27 15 NW 50 0,0
19.05.2018 01:00:00 8,5 4,5 21 11 30 16 NNW 50 0,0
19.05.2018 00:00:00 8,6 4,0 18 10 30 16 N 50 0,0
18.05.2018 23:00:00 9,0 3,6 24 13 30 16 N 50 0,0
18.05.2018 22:00:00 9,0 3,4 23 12 38 20 N 50 0,0
18.05.2018 21:00:00 9,0 3,8 27 15 41 22 N 50 0,0
18.05.2018 20:00:00 8,9 3,3 27 15 47 26 N 49 0,0
18.05.2018 19:00:00 9,1 3,3 26 14 47 26 N 40 0,0
18.05.2018 18:00:00 9,4 3,2 34 18 43 23 N 33 0,0
18.05.2018 17:00:00 9,4 4,4 24 13 31 17 N 32 0,0
18.05.2018 16:00:00 9,5 4,7 23 12 35 19 N 28 0,0
18.05.2018 15:00:00 9,6 4,4 23 12 37 20 N 38 0,0
18.05.2018 14:00:00 9,3 4,5 24 13 46 25 N 31 0,0
18.05.2018 13:00:00 9,1 4,9 29 16 50 27 N 26 0,0
18.05.2018 12:00:00 9,4 5,0 34 18 50 27 N 36 0,0
18.05.2018 11:00:00 9,6 5,0 36 20 45 24 N 41 0,0
18.05.2018 10:00:00 9,3 5,1 24 13 38 21 N 29 0,0
18.05.2018 09:00:00 8,9 5,1 28 15 37 20 N 38 0,0
18.05.2018 08:00:00 8,8 5,0 23 13 37 20 N 27 0,0
18.05.2018 07:00:00 8,7 4,9 27 15 41 22 N 32 0,0
18.05.2018 06:00:00 8,7 5,1 27 14 42 23 N 39 0,0
18.05.2018 05:00:00 9,1 4,7 32 17 42 23 N 38 0,0
18.05.2018 04:00:00 8,9 5,1 22 12 36 20 N 47 0,0
18.05.2018 03:00:00 8,9 5,3 21 12 36 20 N 46 0,0
18.05.2018 02:00:00 8,9 5,1 27 15 39 21 N 50 0,0
18.05.2018 01:00:00 8,9 5,1 30 16 39 21 N 50 0,0
18.05.2018 00:00:00 8,7 5,3 27 14 41 22 N 48 0,0
17.05.2018 23:00:00 8,4 5,5 29 16 41 22 N 47 0,0
17.05.2018 22:00:00 8,4 5,7 31 17 40 22 N 50 0,0

tt = Température de l'air
td = dewpoint
ff = Vitesse du vent
fx = gusts
dd = Direction du vent
vv = visibility
rr = Quantités de précipitations

stations d'obs. à proximité